GABS/BKO METAR and TAF weather

Enter ICAO airport designator
Station Type Date Time Source
GABS METAR 2019/02/23 02:30 UTC NOAA

GABS 230230Z 04007KT CAVOK 24/M09 Q1015 NOSIG


Station Type Date Time Source
GABS Decoded METAR 2019/02/23 02:30 UTC NOAA

Bamako / Senou, Mali (GABS) 12-32N 007-57W 381M
Feb 22, 2019 - 09:30 PM EST / 2019.02.23 0230 UTC
Wind: from the NE (040 degrees) at 8 MPH (7 KT):0
Visibility: greater than 7 mile(s):0
Temperature: 75 F (24 C)
Dew Point: 15 F (-9 C)
Relative Humidity: 10%
Pressure (altimeter): 29.97 in. Hg (1015 hPa)
ob: GABS 230230Z 04007KT CAVOK 24/M09 Q1015 NOSIG
cycle: 2

Station Type Date Time Source
GABS TAF 2019/02/22 18:51 UTC NOAA

TAF TAF GABS 221700Z 2218/2324 01010KT CAVOK


Example: see airport list